Terminal Aerodrome Forecast
Issued by NWS

Home | Current Version | Previous Version | Text Only | Print | Product List | Glossary On
Versions: 1 2 3 4 5 6 7 8 9 10 11 12 13 14
694
FTUS45 KABQ 281743
TAFFMN
TAF
KFMN 281743Z 2818/2918 12011KT P6SM SKC
     FM282100 28011KT P6SM SCT100
     FM290300 08006KT P6SM SKC=

USA.gov is the U.S. government's official web portal to all federal, state and local government web resources and services.